Sibi Weather



Sibi's Current Weather

Temprature 24.05o clear sky

clear sky

Rain: 0 %

Min Temprature24.05o
Max Temprature24.05o
Humidity17
Wind Speed1.48 m/h
Sun Rise06:38:46
Sun Set17:45:32
Current Time: 28-Oct-2020 07:40:38
Lat/Lon: 29.54, 67.88




Sibi's Geo Location



Sibi's Weather Forecast

Time Overall Temp Min Temp Max Temp Humidity Wind Speed Rain
28-Oct-2020 (Wed)
08:00:00 clear sky 21.300 21.300 24.050 20 1.48 m/h 0 %
11:00:00 clear sky 28.320 28.320 30.980 13 0.43 m/h 0 %
14:00:00 clear sky 32.780 32.780 33.740 9 1.4 m/h 0 %
17:00:00 clear sky 31.280 31.280 31.380 10 2.39 m/h 0 %
20:00:00 clear sky 24.780 24.780 24.780 16 1.96 m/h 0 %
23:00:00 clear sky 22.290 22.290 22.290 18 2.29 m/h 0 %
29-Oct-2020 (Thu)
02:00:00 clear sky 21.230 21.230 21.230 19 2.52 m/h 0 %
05:00:00 clear sky 20.740 20.740 20.740 20 2.95 m/h 0 %
08:00:00 clear sky 24.250 24.250 24.250 16 2.71 m/h 0 %
11:00:00 clear sky 31.400 31.400 31.400 10 0.95 m/h 0 %
14:00:00 clear sky 33.750 33.750 33.750 9 1.65 m/h 0 %
17:00:00 clear sky 31.090 31.090 31.090 10 2.43 m/h 0 %
20:00:00 clear sky 22.730 22.730 22.730 18 1.36 m/h 0 %
23:00:00 clear sky 21.530 21.530 21.530 19 1.8 m/h 0 %
30-Oct-2020 (Fri)
02:00:00 clear sky 20.430 20.430 20.430 20 1.56 m/h 0 %
05:00:00 clear sky 19.350 19.350 19.350 22 1.69 m/h 0 %
08:00:00 clear sky 23.650 23.650 23.650 17 0.76 m/h 0 %
11:00:00 clear sky 30.720 30.720 30.720 11 0.68 m/h 0 %
14:00:00 clear sky 33.020 33.020 33.020 10 1.77 m/h 0 %
17:00:00 clear sky 30.700 30.700 30.700 12 2.3 m/h 0 %
20:00:00 clear sky 22.310 22.310 22.310 20 0.99 m/h 0 %
23:00:00 clear sky 21.930 21.930 21.930 20 1.84 m/h 0 %
31-Oct-2020 (Sat)
02:00:00 clear sky 20.210 20.210 20.210 22 1.53 m/h 0 %
05:00:00 clear sky 19.590 19.590 19.590 22 1.96 m/h 0 %
08:00:00 clear sky 24.170 24.170 24.170 17 2.03 m/h 0 %
11:00:00 clear sky 30.840 30.840 30.840 11 0.68 m/h 0 %
14:00:00 clear sky 32.980 32.980 32.980 10 1.29 m/h 0 %
17:00:00 clear sky 29.810 29.810 29.810 12 1.63 m/h 0 %
20:00:00 clear sky 21.920 21.920 21.920 20 0.17 m/h 0 %
23:00:00 clear sky 22.520 22.520 22.520 18 3 m/h 0 %
01-Nov-2020 (Sun)
02:00:00 clear sky 20.380 20.380 20.380 19 2.75 m/h 0 %
05:00:00 clear sky 19.740 19.740 19.740 19 2.78 m/h 0 %
08:00:00 clear sky 23.300 23.300 23.300 15 2.31 m/h 0 %
11:00:00 clear sky 30.800 30.800 30.800 10 0.65 m/h 0 %
14:00:00 clear sky 33.520 33.520 33.520 8 1.78 m/h 0 %
17:00:00 clear sky 30.080 30.080 30.080 10 2.53 m/h 0 %
20:00:00 clear sky 22.270 22.270 22.270 17 1.68 m/h 0 %
23:00:00 clear sky 20.360 20.360 20.360 19 1.45 m/h 0 %
02-Nov-2020 (Mon)
02:00:00 clear sky 19.760 19.760 19.760 18 2.45 m/h 0 %
05:00:00 clear sky 18.380 18.380 18.380 18 2.44 m/h 0 %

Famous Cities (60)